sensor_id;sensor_type;location;lat;lon;timestamp;P1;durP1;ratioP1;P2;durP2;ratioP2
20729;SDS011;10526;50.850;12.928;2024-01-06T00:02:44;15.48;;;5.63;;
20729;SDS011;10526;50.850;12.928;2024-01-06T00:07:06;20.25;;;6.03;;
20729;SDS011;10526;50.850;12.928;2024-01-06T00:11:29;21.13;;;5.97;;
20729;SDS011;10526;50.850;12.928;2024-01-06T00:15:51;15.95;;;5.75;;
20729;SDS011;10526;50.850;12.928;2024-01-06T00:20:13;15.82;;;6.00;;
20729;SDS011;10526;50.850;12.928;2024-01-06T00:24:35;16.80;;;5.93;;
20729;SDS011;10526;50.850;12.928;2024-01-06T00:28:57;14.20;;;5.20;;
20729;SDS011;10526;50.850;12.928;2024-01-06T00:33:20;17.10;;;5.68;;
20729;SDS011;10526;50.850;12.928;2024-01-06T00:37:42;16.38;;;5.60;;
20729;SDS011;10526;50.850;12.928;2024-01-06T00:42:04;11.88;;;5.10;;
20729;SDS011;10526;50.850;12.928;2024-01-06T00:46:26;17.92;;;6.03;;
20729;SDS011;10526;50.850;12.928;2024-01-06T00:50:48;19.05;;;6.10;;
20729;SDS011;10526;50.850;12.928;2024-01-06T00:55:11;13.45;;;5.85;;
20729;SDS011;10526;50.850;12.928;2024-01-06T00:59:33;11.35;;;5.40;;
20729;SDS011;10526;50.850;12.928;2024-01-06T01:03:55;13.52;;;4.88;;
20729;SDS011;10526;50.850;12.928;2024-01-06T01:08:17;11.85;;;5.15;;
20729;SDS011;10526;50.850;12.928;2024-01-06T01:12:39;12.48;;;5.35;;
20729;SDS011;10526;50.850;12.928;2024-01-06T01:17:01;15.77;;;5.75;;
20729;SDS011;10526;50.850;12.928;2024-01-06T01:21:24;16.17;;;5.63;;
20729;SDS011;10526;50.850;12.928;2024-01-06T01:25:46;16.10;;;5.93;;
20729;SDS011;10526;50.850;12.928;2024-01-06T01:30:08;15.50;;;5.43;;
20729;SDS011;10526;50.850;12.928;2024-01-06T01:34:31;11.55;;;4.93;;
20729;SDS011;10526;50.850;12.928;2024-01-06T01:38:53;11.45;;;4.60;;
20729;SDS011;10526;50.850;12.928;2024-01-06T01:43:18;18.67;;;6.30;;
20729;SDS011;10526;50.850;12.928;2024-01-06T01:47:41;11.90;;;4.85;;
20729;SDS011;10526;50.850;12.928;2024-01-06T01:52:03;16.75;;;5.60;;
20729;SDS011;10526;50.850;12.928;2024-01-06T01:56:26;15.57;;;5.82;;
20729;SDS011;10526;50.850;12.928;2024-01-06T02:00:49;15.30;;;6.13;;
20729;SDS011;10526;50.850;12.928;2024-01-06T02:05:11;13.02;;;5.13;;
20729;SDS011;10526;50.850;12.928;2024-01-06T02:09:33;13.00;;;5.00;;
20729;SDS011;10526;50.850;12.928;2024-01-06T02:13:56;13.40;;;4.55;;
20729;SDS011;10526;50.850;12.928;2024-01-06T02:18:18;11.73;;;3.72;;
20729;SDS011;10526;50.850;12.928;2024-01-06T02:22:41;15.60;;;4.28;;
20729;SDS011;10526;50.850;12.928;2024-01-06T02:27:03;12.18;;;4.28;;
20729;SDS011;10526;50.850;12.928;2024-01-06T02:31:25;11.40;;;4.30;;
20729;SDS011;10526;50.850;12.928;2024-01-06T02:35:47;14.77;;;5.15;;
20729;SDS011;10526;50.850;12.928;2024-01-06T02:40:10;18.35;;;5.90;;
20729;SDS011;10526;50.850;12.928;2024-01-06T02:44:32;12.68;;;5.07;;
20729;SDS011;10526;50.850;12.928;2024-01-06T02:48:54;13.23;;;5.53;;
20729;SDS011;10526;50.850;12.928;2024-01-06T02:53:17;19.67;;;5.65;;
20729;SDS011;10526;50.850;12.928;2024-01-06T02:57:39;14.63;;;5.05;;
20729;SDS011;10526;50.850;12.928;2024-01-06T03:02:02;15.82;;;5.22;;
20729;SDS011;10526;50.850;12.928;2024-01-06T03:06:24;15.98;;;4.80;;
20729;SDS011;10526;50.850;12.928;2024-01-06T03:10:46;15.02;;;5.05;;
20729;SDS011;10526;50.850;12.928;2024-01-06T03:15:08;14.82;;;4.55;;
20729;SDS011;10526;50.850;12.928;2024-01-06T03:19:32;16.38;;;4.45;;
20729;SDS011;10526;50.850;12.928;2024-01-06T03:23:54;12.65;;;4.65;;
20729;SDS011;10526;50.850;12.928;2024-01-06T03:28:16;14.95;;;4.25;;
20729;SDS011;10526;50.850;12.928;2024-01-06T03:32:38;12.20;;;4.50;;
20729;SDS011;10526;50.850;12.928;2024-01-06T03:37:00;12.27;;;4.88;;
20729;SDS011;10526;50.850;12.928;2024-01-06T03:41:23;9.63;;;4.05;;
20729;SDS011;10526;50.850;12.928;2024-01-06T03:45:46;16.30;;;4.68;;
20729;SDS011;10526;50.850;12.928;2024-01-06T03:50:08;11.57;;;4.10;;
20729;SDS011;10526;50.850;12.928;2024-01-06T03:54:30;11.50;;;3.80;;
20729;SDS011;10526;50.850;12.928;2024-01-06T03:58:52;13.55;;;4.55;;
20729;SDS011;10526;50.850;12.928;2024-01-06T04:03:15;19.95;;;5.95;;
20729;SDS011;10526;50.850;12.928;2024-01-06T04:07:37;14.15;;;5.88;;
20729;SDS011;10526;50.850;12.928;2024-01-06T04:11:59;10.00;;;4.72;;
20729;SDS011;10526;50.850;12.928;2024-01-06T04:16:22;13.93;;;3.90;;
20729;SDS011;10526;50.850;12.928;2024-01-06T04:20:44;16.33;;;4.97;;
20729;SDS011;10526;50.850;12.928;2024-01-06T04:25:06;11.32;;;4.60;;
20729;SDS011;10526;50.850;12.928;2024-01-06T04:29:28;12.77;;;4.18;;
20729;SDS011;10526;50.850;12.928;2024-01-06T04:33:50;12.98;;;4.55;;
20729;SDS011;10526;50.850;12.928;2024-01-06T04:38:13;14.15;;;5.47;;
20729;SDS011;10526;50.850;12.928;2024-01-06T04:42:35;12.77;;;4.65;;
20729;SDS011;10526;50.850;12.928;2024-01-06T04:46:57;10.52;;;5.05;;
20729;SDS011;10526;50.850;12.928;2024-01-06T04:51:19;17.63;;;6.68;;
20729;SDS011;10526;50.850;12.928;2024-01-06T04:55:42;13.25;;;5.25;;
20729;SDS011;10526;50.850;12.928;2024-01-06T05:00:04;16.85;;;5.07;;
20729;SDS011;10526;50.850;12.928;2024-01-06T05:04:27;15.75;;;5.78;;
20729;SDS011;10526;50.850;12.928;2024-01-06T05:08:52;13.63;;;5.43;;
20729;SDS011;10526;50.850;12.928;2024-01-06T05:13:14;12.27;;;4.88;;
20729;SDS011;10526;50.850;12.928;2024-01-06T05:17:37;13.68;;;4.35;;
20729;SDS011;10526;50.850;12.928;2024-01-06T05:21:59;14.68;;;4.55;;
20729;SDS011;10526;50.850;12.928;2024-01-06T05:26:21;14.13;;;4.68;;
20729;SDS011;10526;50.850;12.928;2024-01-06T05:30:44;16.02;;;5.35;;
20729;SDS011;10526;50.850;12.928;2024-01-06T05:35:06;15.15;;;4.90;;
20729;SDS011;10526;50.850;12.928;2024-01-06T05:39:29;16.30;;;4.43;;
20729;SDS011;10526;50.850;12.928;2024-01-06T05:43:51;11.95;;;5.03;;
20729;SDS011;10526;50.850;12.928;2024-01-06T05:48:13;19.38;;;5.18;;
20729;SDS011;10526;50.850;12.928;2024-01-06T05:52:35;13.85;;;5.20;;
20729;SDS011;10526;50.850;12.928;2024-01-06T05:56:57;13.27;;;5.63;;
20729;SDS011;10526;50.850;12.928;2024-01-06T06:01:20;14.65;;;6.05;;
20729;SDS011;10526;50.850;12.928;2024-01-06T06:05:44;18.67;;;5.50;;
20729;SDS011;10526;50.850;12.928;2024-01-06T06:10:07;15.57;;;6.70;;
20729;SDS011;10526;50.850;12.928;2024-01-06T06:14:31;18.25;;;6.20;;
20729;SDS011;10526;50.850;12.928;2024-01-06T06:18:53;14.27;;;5.72;;
20729;SDS011;10526;50.850;12.928;2024-01-06T06:23:16;13.93;;;5.70;;
20729;SDS011;10526;50.850;12.928;2024-01-06T06:27:38;15.13;;;6.13;;
20729;SDS011;10526;50.850;12.928;2024-01-06T06:32:01;13.25;;;6.30;;
20729;SDS011;10526;50.850;12.928;2024-01-06T06:36:23;15.50;;;6.75;;
20729;SDS011;10526;50.850;12.928;2024-01-06T06:40:45;12.02;;;5.70;;
20729;SDS011;10526;50.850;12.928;2024-01-06T06:45:07;15.27;;;5.93;;
20729;SDS011;10526;50.850;12.928;2024-01-06T06:49:33;18.27;;;8.02;;
20729;SDS011;10526;50.850;12.928;2024-01-06T06:53:55;16.05;;;6.97;;
20729;SDS011;10526;50.850;12.928;2024-01-06T06:58:18;17.95;;;8.18;;
20729;SDS011;10526;50.850;12.928;2024-01-06T07:02:40;16.27;;;5.63;;
20729;SDS011;10526;50.850;12.928;2024-01-06T07:07:02;18.27;;;6.45;;
20729;SDS011;10526;50.850;12.928;2024-01-06T07:11:24;13.60;;;6.00;;
20729;SDS011;10526;50.850;12.928;2024-01-06T07:15:46;15.35;;;6.35;;
20729;SDS011;10526;50.850;12.928;2024-01-06T07:20:10;17.98;;;6.90;;
20729;SDS011;10526;50.850;12.928;2024-01-06T07:24:32;18.08;;;7.13;;
20729;SDS011;10526;50.850;12.928;2024-01-06T07:28:55;21.77;;;7.85;;
20729;SDS011;10526;50.850;12.928;2024-01-06T07:33:17;18.38;;;7.88;;
20729;SDS011;10526;50.850;12.928;2024-01-06T07:37:39;20.40;;;8.77;;
20729;SDS011;10526;50.850;12.928;2024-01-06T07:42:01;19.98;;;7.05;;
20729;SDS011;10526;50.850;12.928;2024-01-06T07:46:24;18.42;;;8.38;;
20729;SDS011;10526;50.850;12.928;2024-01-06T07:50:46;24.33;;;8.18;;
20729;SDS011;10526;50.850;12.928;2024-01-06T07:55:08;16.70;;;7.25;;
20729;SDS011;10526;50.850;12.928;2024-01-06T07:59:30;18.35;;;7.43;;
20729;SDS011;10526;50.850;12.928;2024-01-06T08:03:52;19.25;;;8.02;;
20729;SDS011;10526;50.850;12.928;2024-01-06T08:08:14;15.90;;;7.20;;
20729;SDS011;10526;50.850;12.928;2024-01-06T08:12:38;21.98;;;7.82;;
20729;SDS011;10526;50.850;12.928;2024-01-06T08:17:00;17.35;;;8.10;;
20729;SDS011;10526;50.850;12.928;2024-01-06T08:21:22;22.10;;;9.35;;
20729;SDS011;10526;50.850;12.928;2024-01-06T08:25:44;26.05;;;11.10;;
20729;SDS011;10526;50.850;12.928;2024-01-06T08:30:07;24.02;;;13.23;;
20729;SDS011;10526;50.850;12.928;2024-01-06T08:34:30;19.55;;;10.00;;
20729;SDS011;10526;50.850;12.928;2024-01-06T08:38:53;16.63;;;5.43;;
20729;SDS011;10526;50.850;12.928;2024-01-06T08:43:16;9.40;;;3.97;;
20729;SDS011;10526;50.850;12.928;2024-01-06T08:47:38;8.23;;;3.35;;
20729;SDS011;10526;50.850;12.928;2024-01-06T08:52:00;9.93;;;3.70;;
20729;SDS011;10526;50.850;12.928;2024-01-06T08:56:23;8.90;;;3.78;;
20729;SDS011;10526;50.850;12.928;2024-01-06T09:00:45;10.73;;;3.28;;
20729;SDS011;10526;50.850;12.928;2024-01-06T09:05:07;10.63;;;3.88;;
20729;SDS011;10526;50.850;12.928;2024-01-06T09:09:30;8.55;;;3.53;;
20729;SDS011;10526;50.850;12.928;2024-01-06T09:13:52;11.45;;;4.25;;
20729;SDS011;10526;50.850;12.928;2024-01-06T09:18:14;9.35;;;3.38;;
20729;SDS011;10526;50.850;12.928;2024-01-06T09:22:37;11.23;;;4.00;;
20729;SDS011;10526;50.850;12.928;2024-01-06T09:26:59;12.55;;;3.97;;
20729;SDS011;10526;50.850;12.928;2024-01-06T09:31:21;8.65;;;3.58;;
20729;SDS011;10526;50.850;12.928;2024-01-06T09:35:43;11.60;;;4.43;;
20729;SDS011;10526;50.850;12.928;2024-01-06T09:40:07;9.52;;;3.80;;
20729;SDS011;10526;50.850;12.928;2024-01-06T09:44:36;12.40;;;4.18;;
20729;SDS011;10526;50.850;12.928;2024-01-06T09:48:59;11.82;;;4.53;;
20729;SDS011;10526;50.850;12.928;2024-01-06T09:53:23;12.50;;;4.32;;
20729;SDS011;10526;50.850;12.928;2024-01-06T09:57:54;11.23;;;4.25;;
20729;SDS011;10526;50.850;12.928;2024-01-06T10:02:17;9.15;;;3.60;;
20729;SDS011;10526;50.850;12.928;2024-01-06T10:06:39;13.38;;;4.75;;
20729;SDS011;10526;50.850;12.928;2024-01-06T10:11:03;11.55;;;4.53;;
20729;SDS011;10526;50.850;12.928;2024-01-06T10:15:25;10.75;;;3.92;;
20729;SDS011;10526;50.850;12.928;2024-01-06T10:19:47;13.52;;;4.22;;
20729;SDS011;10526;50.850;12.928;2024-01-06T10:24:10;11.27;;;3.83;;
20729;SDS011;10526;50.850;12.928;2024-01-06T10:28:32;11.65;;;3.75;;
20729;SDS011;10526;50.850;12.928;2024-01-06T10:32:54;9.05;;;4.05;;
20729;SDS011;10526;50.850;12.928;2024-01-06T10:37:17;15.77;;;5.45;;
20729;SDS011;10526;50.850;12.928;2024-01-06T10:41:39;14.45;;;4.78;;
20729;SDS011;10526;50.850;12.928;2024-01-06T10:46:04;16.17;;;4.50;;
20729;SDS011;10526;50.850;12.928;2024-01-06T10:50:31;14.63;;;5.13;;
20729;SDS011;10526;50.850;12.928;2024-01-06T10:54:54;13.82;;;4.70;;
20729;SDS011;10526;50.850;12.928;2024-01-06T10:59:17;13.88;;;4.78;;
20729;SDS011;10526;50.850;12.928;2024-01-06T11:03:44;12.25;;;4.60;;
20729;SDS011;10526;50.850;12.928;2024-01-06T11:08:09;17.08;;;6.75;;
20729;SDS011;10526;50.850;12.928;2024-01-06T11:12:32;12.20;;;5.25;;
20729;SDS011;10526;50.850;12.928;2024-01-06T11:16:55;16.70;;;6.05;;
20729;SDS011;10526;50.850;12.928;2024-01-06T11:21:23;15.10;;;4.72;;
20729;SDS011;10526;50.850;12.928;2024-01-06T11:25:48;19.13;;;5.82;;
20729;SDS011;10526;50.850;12.928;2024-01-06T11:30:18;13.43;;;5.10;;
20729;SDS011;10526;50.850;12.928;2024-01-06T11:34:50;12.20;;;5.03;;
20729;SDS011;10526;50.850;12.928;2024-01-06T11:43:59;17.40;;;6.45;;
20729;SDS011;10526;50.850;12.928;2024-01-06T11:48:22;12.73;;;5.38;;
20729;SDS011;10526;50.850;12.928;2024-01-06T11:52:46;17.38;;;5.25;;
20729;SDS011;10526;50.850;12.928;2024-01-06T11:57:08;13.27;;;6.03;;
20729;SDS011;10526;50.850;12.928;2024-01-06T12:01:37;19.63;;;5.65;;
20729;SDS011;10526;50.850;12.928;2024-01-06T12:06:00;13.18;;;5.75;;
20729;SDS011;10526;50.850;12.928;2024-01-06T12:10:25;19.33;;;6.68;;
20729;SDS011;10526;50.850;12.928;2024-01-06T12:14:49;16.67;;;6.28;;
20729;SDS011;10526;50.850;12.928;2024-01-06T12:19:11;18.23;;;6.47;;
20729;SDS011;10526;50.850;12.928;2024-01-06T12:23:33;13.57;;;5.63;;
20729;SDS011;10526;50.850;12.928;2024-01-06T12:27:56;17.55;;;6.55;;
20729;SDS011;10526;50.850;12.928;2024-01-06T12:32:18;15.70;;;6.82;;
20729;SDS011;10526;50.850;12.928;2024-01-06T12:36:40;15.65;;;5.82;;
20729;SDS011;10526;50.850;12.928;2024-01-06T12:41:05;16.70;;;6.30;;
20729;SDS011;10526;50.850;12.928;2024-01-06T12:45:27;14.50;;;6.22;;
20729;SDS011;10526;50.850;12.928;2024-01-06T12:49:50;25.27;;;10.07;;
20729;SDS011;10526;50.850;12.928;2024-01-06T12:54:12;13.18;;;5.78;;
20729;SDS011;10526;50.850;12.928;2024-01-06T12:58:34;14.25;;;5.78;;
20729;SDS011;10526;50.850;12.928;2024-01-06T13:02:56;17.27;;;5.20;;
20729;SDS011;10526;50.850;12.928;2024-01-06T13:07:19;15.75;;;6.05;;
20729;SDS011;10526;50.850;12.928;2024-01-06T13:11:41;16.50;;;6.03;;
20729;SDS011;10526;50.850;12.928;2024-01-06T13:16:03;15.18;;;6.93;;
20729;SDS011;10526;50.850;12.928;2024-01-06T13:20:27;14.02;;;5.60;;
20729;SDS011;10526;50.850;12.928;2024-01-06T13:24:49;16.02;;;6.20;;
20729;SDS011;10526;50.850;12.928;2024-01-06T13:29:14;20.13;;;7.05;;
20729;SDS011;10526;50.850;12.928;2024-01-06T13:33:36;16.27;;;5.90;;
20729;SDS011;10526;50.850;12.928;2024-01-06T13:37:59;14.60;;;6.47;;
20729;SDS011;10526;50.850;12.928;2024-01-06T13:42:21;15.00;;;5.88;;
20729;SDS011;10526;50.850;12.928;2024-01-06T13:46:43;22.30;;;7.68;;
20729;SDS011;10526;50.850;12.928;2024-01-06T13:51:06;19.90;;;7.85;;
20729;SDS011;10526;50.850;12.928;2024-01-06T13:55:29;21.95;;;7.82;;
20729;SDS011;10526;50.850;12.928;2024-01-06T13:59:51;20.00;;;6.70;;
20729;SDS011;10526;50.850;12.928;2024-01-06T14:04:13;15.93;;;5.93;;
20729;SDS011;10526;50.850;12.928;2024-01-06T14:08:35;16.00;;;6.30;;
20729;SDS011;10526;50.850;12.928;2024-01-06T14:12:57;14.35;;;6.22;;
20729;SDS011;10526;50.850;12.928;2024-01-06T14:17:19;17.90;;;7.00;;
20729;SDS011;10526;50.850;12.928;2024-01-06T14:21:42;16.10;;;7.18;;
20729;SDS011;10526;50.850;12.928;2024-01-06T14:26:04;20.67;;;6.78;;
20729;SDS011;10526;50.850;12.928;2024-01-06T14:30:27;17.50;;;6.55;;
20729;SDS011;10526;50.850;12.928;2024-01-06T14:34:50;16.27;;;6.18;;
20729;SDS011;10526;50.850;12.928;2024-01-06T14:39:16;13.52;;;5.85;;
20729;SDS011;10526;50.850;12.928;2024-01-06T14:43:43;15.15;;;6.10;;
20729;SDS011;10526;50.850;12.928;2024-01-06T14:48:05;16.52;;;6.05;;
20729;SDS011;10526;50.850;12.928;2024-01-06T14:52:27;17.73;;;6.97;;
20729;SDS011;10526;50.850;12.928;2024-01-06T14:56:49;15.63;;;7.00;;
20729;SDS011;10526;50.850;12.928;2024-01-06T15:01:11;17.75;;;7.20;;
20729;SDS011;10526;50.850;12.928;2024-01-06T15:05:33;18.67;;;7.38;;
20729;SDS011;10526;50.850;12.928;2024-01-06T15:09:56;22.65;;;10.32;;
20729;SDS011;10526;50.850;12.928;2024-01-06T15:14:21;19.38;;;9.93;;
20729;SDS011;10526;50.850;12.928;2024-01-06T15:18:43;22.33;;;11.00;;
20729;SDS011;10526;50.850;12.928;2024-01-06T15:23:05;25.65;;;11.50;;
20729;SDS011;10526;50.850;12.928;2024-01-06T15:27:27;23.75;;;12.32;;
20729;SDS011;10526;50.850;12.928;2024-01-06T15:31:50;24.50;;;13.15;;
20729;SDS011;10526;50.850;12.928;2024-01-06T15:36:18;33.78;;;16.13;;
20729;SDS011;10526;50.850;12.928;2024-01-06T15:40:40;33.00;;;18.27;;
20729;SDS011;10526;50.850;12.928;2024-01-06T15:45:03;34.53;;;17.70;;
20729;SDS011;10526;50.850;12.928;2024-01-06T15:49:26;36.20;;;20.35;;
20729;SDS011;10526;50.850;12.928;2024-01-06T15:53:48;37.65;;;19.27;;
20729;SDS011;10526;50.850;12.928;2024-01-06T15:58:11;38.03;;;20.10;;
20729;SDS011;10526;50.850;12.928;2024-01-06T16:02:33;37.00;;;19.50;;
20729;SDS011;10526;50.850;12.928;2024-01-06T16:06:55;44.90;;;20.92;;
20729;SDS011;10526;50.850;12.928;2024-01-06T16:11:18;48.15;;;22.90;;
20729;SDS011;10526;50.850;12.928;2024-01-06T16:15:40;42.72;;;22.27;;
20729;SDS011;10526;50.850;12.928;2024-01-06T16:20:02;44.03;;;23.25;;
20729;SDS011;10526;50.850;12.928;2024-01-06T16:24:27;49.92;;;25.15;;
20729;SDS011;10526;50.850;12.928;2024-01-06T16:28:51;49.58;;;24.85;;
20729;SDS011;10526;50.850;12.928;2024-01-06T16:33:13;60.75;;;27.42;;
20729;SDS011;10526;50.850;12.928;2024-01-06T16:37:37;58.97;;;28.27;;
20729;SDS011;10526;50.850;12.928;2024-01-06T16:41:59;68.90;;;29.02;;
20729;SDS011;10526;50.850;12.928;2024-01-06T16:46:21;65.97;;;27.38;;
20729;SDS011;10526;50.850;12.928;2024-01-06T16:50:43;86.82;;;32.63;;
20729;SDS011;10526;50.850;12.928;2024-01-06T16:55:07;66.05;;;27.88;;
20729;SDS011;10526;50.850;12.928;2024-01-06T16:59:30;71.53;;;29.40;;
20729;SDS011;10526;50.850;12.928;2024-01-06T17:03:55;75.38;;;30.60;;
20729;SDS011;10526;50.850;12.928;2024-01-06T17:08:17;70.93;;;29.23;;
20729;SDS011;10526;50.850;12.928;2024-01-06T17:12:40;83.95;;;27.95;;
20729;SDS011;10526;50.850;12.928;2024-01-06T17:17:02;74.95;;;27.15;;
20729;SDS011;10526;50.850;12.928;2024-01-06T17:21:25;77.50;;;26.85;;
20729;SDS011;10526;50.850;12.928;2024-01-06T17:25:47;88.53;;;28.13;;
20729;SDS011;10526;50.850;12.928;2024-01-06T17:30:09;74.22;;;27.95;;
20729;SDS011;10526;50.850;12.928;2024-01-06T17:34:32;68.70;;;27.20;;
20729;SDS011;10526;50.850;12.928;2024-01-06T17:38:54;93.82;;;29.73;;
20729;SDS011;10526;50.850;12.928;2024-01-06T17:43:16;101.60;;;32.05;;
20729;SDS011;10526;50.850;12.928;2024-01-06T17:47:38;85.80;;;30.60;;
20729;SDS011;10526;50.850;12.928;2024-01-06T17:52:02;87.95;;;30.63;;
20729;SDS011;10526;50.850;12.928;2024-01-06T17:56:25;107.78;;;34.65;;
20729;SDS011;10526;50.850;12.928;2024-01-06T18:00:47;141.15;;;49.15;;
20729;SDS011;10526;50.850;12.928;2024-01-06T18:05:10;99.50;;;34.28;;
20729;SDS011;10526;50.850;12.928;2024-01-06T18:09:32;107.53;;;36.45;;
20729;SDS011;10526;50.850;12.928;2024-01-06T18:13:54;122.68;;;37.03;;
20729;SDS011;10526;50.850;12.928;2024-01-06T18:18:17;131.57;;;38.15;;
20729;SDS011;10526;50.850;12.928;2024-01-06T18:22:40;172.90;;;41.13;;
20729;SDS011;10526;50.850;12.928;2024-01-06T18:27:03;185.10;;;40.05;;
20729;SDS011;10526;50.850;12.928;2024-01-06T18:31:26;167.27;;;40.53;;
20729;SDS011;10526;50.850;12.928;2024-01-06T18:35:48;196.43;;;41.55;;
20729;SDS011;10526;50.850;12.928;2024-01-06T18:40:11;139.85;;;39.65;;
20729;SDS011;10526;50.850;12.928;2024-01-06T18:44:34;145.85;;;44.78;;
20729;SDS011;10526;50.850;12.928;2024-01-06T18:48:56;130.20;;;37.55;;
20729;SDS011;10526;50.850;12.928;2024-01-06T18:53:19;127.43;;;41.25;;
20729;SDS011;10526;50.850;12.928;2024-01-06T18:57:42;138.05;;;40.97;;
20729;SDS011;10526;50.850;12.928;2024-01-06T19:02:04;138.55;;;40.30;;
20729;SDS011;10526;50.850;12.928;2024-01-06T19:06:28;140.63;;;40.70;;
20729;SDS011;10526;50.850;12.928;2024-01-06T19:10:51;141.73;;;43.40;;
20729;SDS011;10526;50.850;12.928;2024-01-06T19:15:14;135.95;;;40.20;;
20729;SDS011;10526;50.850;12.928;2024-01-06T19:19:36;148.57;;;43.97;;
20729;SDS011;10526;50.850;12.928;2024-01-06T19:24:01;140.35;;;42.55;;
20729;SDS011;10526;50.850;12.928;2024-01-06T19:28:24;131.55;;;40.35;;
20729;SDS011;10526;50.850;12.928;2024-01-06T19:32:46;173.05;;;46.83;;
20729;SDS011;10526;50.850;12.928;2024-01-06T19:37:08;166.27;;;46.15;;
20729;SDS011;10526;50.850;12.928;2024-01-06T19:41:31;181.75;;;49.55;;
20729;SDS011;10526;50.850;12.928;2024-01-06T19:45:53;157.38;;;44.47;;
20729;SDS011;10526;50.850;12.928;2024-01-06T19:50:15;165.65;;;47.35;;
20729;SDS011;10526;50.850;12.928;2024-01-06T19:54:38;151.60;;;45.35;;
20729;SDS011;10526;50.850;12.928;2024-01-06T19:59:00;159.80;;;45.20;;
20729;SDS011;10526;50.850;12.928;2024-01-06T20:03:23;178.07;;;47.65;;
20729;SDS011;10526;50.850;12.928;2024-01-06T20:07:46;225.95;;;49.00;;
20729;SDS011;10526;50.850;12.928;2024-01-06T20:12:10;281.75;;;48.53;;
20729;SDS011;10526;50.850;12.928;2024-01-06T20:16:33;166.75;;;48.25;;
20729;SDS011;10526;50.850;12.928;2024-01-06T20:20:55;166.88;;;48.30;;
20729;SDS011;10526;50.850;12.928;2024-01-06T20:25:17;179.57;;;51.70;;
20729;SDS011;10526;50.850;12.928;2024-01-06T20:29:40;168.82;;;47.30;;
20729;SDS011;10526;50.850;12.928;2024-01-06T20:34:02;178.20;;;43.92;;
20729;SDS011;10526;50.850;12.928;2024-01-06T20:38:25;184.60;;;45.92;;
20729;SDS011;10526;50.850;12.928;2024-01-06T20:42:48;137.40;;;38.78;;
20729;SDS011;10526;50.850;12.928;2024-01-06T20:47:10;150.18;;;42.50;;
20729;SDS011;10526;50.850;12.928;2024-01-06T20:51:33;159.40;;;47.10;;
20729;SDS011;10526;50.850;12.928;2024-01-06T20:55:57;162.88;;;46.58;;
20729;SDS011;10526;50.850;12.928;2024-01-06T21:00:19;151.70;;;46.13;;
20729;SDS011;10526;50.850;12.928;2024-01-06T21:04:41;147.75;;;42.00;;
20729;SDS011;10526;50.850;12.928;2024-01-06T21:09:04;163.10;;;43.97;;
20729;SDS011;10526;50.850;12.928;2024-01-06T21:13:26;170.40;;;41.47;;
20729;SDS011;10526;50.850;12.928;2024-01-06T21:17:48;132.15;;;42.00;;
20729;SDS011;10526;50.850;12.928;2024-01-06T21:22:10;193.82;;;42.42;;
20729;SDS011;10526;50.850;12.928;2024-01-06T21:26:33;141.13;;;41.45;;
20729;SDS011;10526;50.850;12.928;2024-01-06T21:30:56;133.75;;;38.42;;
20729;SDS011;10526;50.850;12.928;2024-01-06T21:35:18;152.20;;;46.40;;
20729;SDS011;10526;50.850;12.928;2024-01-06T21:39:40;138.57;;;42.10;;
20729;SDS011;10526;50.850;12.928;2024-01-06T21:44:03;144.60;;;45.22;;
20729;SDS011;10526;50.850;12.928;2024-01-06T21:48:25;134.40;;;42.13;;
20729;SDS011;10526;50.850;12.928;2024-01-06T21:52:49;170.93;;;43.55;;
20729;SDS011;10526;50.850;12.928;2024-01-06T21:57:11;128.82;;;38.22;;
20729;SDS011;10526;50.850;12.928;2024-01-06T22:01:36;168.45;;;38.45;;
20729;SDS011;10526;50.850;12.928;2024-01-06T22:06:03;151.82;;;37.00;;
20729;SDS011;10526;50.850;12.928;2024-01-06T22:10:26;151.30;;;32.85;;
20729;SDS011;10526;50.850;12.928;2024-01-06T22:14:54;109.38;;;32.70;;
20729;SDS011;10526;50.850;12.928;2024-01-06T22:19:27;117.65;;;35.30;;
20729;SDS011;10526;50.850;12.928;2024-01-06T22:23:53;150.52;;;33.00;;
20729;SDS011;10526;50.850;12.928;2024-01-06T22:28:19;117.65;;;29.15;;
20729;SDS011;10526;50.850;12.928;2024-01-06T22:32:42;125.18;;;36.22;;
20729;SDS011;10526;50.850;12.928;2024-01-06T22:37:09;120.82;;;34.53;;
20729;SDS011;10526;50.850;12.928;2024-01-06T22:41:35;123.60;;;34.80;;
20729;SDS011;10526;50.850;12.928;2024-01-06T22:45:59;133.88;;;35.50;;
20729;SDS011;10526;50.850;12.928;2024-01-06T22:50:21;187.73;;;40.15;;
20729;SDS011;10526;50.850;12.928;2024-01-06T22:54:44;135.90;;;32.03;;
20729;SDS011;10526;50.850;12.928;2024-01-06T22:59:06;170.50;;;38.47;;
20729;SDS011;10526;50.850;12.928;2024-01-06T23:03:30;129.05;;;36.92;;
20729;SDS011;10526;50.850;12.928;2024-01-06T23:07:53;138.73;;;39.95;;
20729;SDS011;10526;50.850;12.928;2024-01-06T23:12:16;135.18;;;35.75;;
20729;SDS011;10526;50.850;12.928;2024-01-06T23:16:38;125.28;;;35.55;;
20729;SDS011;10526;50.850;12.928;2024-01-06T23:21:01;109.55;;;36.83;;
20729;SDS011;10526;50.850;12.928;2024-01-06T23:25:25;117.75;;;34.92;;
20729;SDS011;10526;50.850;12.928;2024-01-06T23:29:47;116.57;;;35.55;;
20729;SDS011;10526;50.850;12.928;2024-01-06T23:34:09;111.50;;;36.03;;
20729;SDS011;10526;50.850;12.928;2024-01-06T23:38:50;120.78;;;36.20;;
20729;SDS011;10526;50.850;12.928;2024-01-06T23:43:12;151.55;;;39.60;;
20729;SDS011;10526;50.850;12.928;2024-01-06T23:47:34;179.57;;;40.75;;
20729;SDS011;10526;50.850;12.928;2024-01-06T23:51:57;154.75;;;41.13;;
20729;SDS011;10526;50.850;12.928;2024-01-06T23:56:19;148.15;;;38.53;;
